sensor_id;sensor_type;location;lat;lon;timestamp;temperature;humidity
7574;DHT22;3828;48.922;9.116;2023-03-26T00:10:30;7.30;99.90
7574;DHT22;3828;48.922;9.116;2023-03-26T00:20:20;7.20;99.90
7574;DHT22;3828;48.922;9.116;2023-03-26T00:27:43;7.10;99.90
7574;DHT22;3828;48.922;9.116;2023-03-26T00:30:11;7.00;99.90
7574;DHT22;3828;48.922;9.116;2023-03-26T00:35:06;7.00;99.90
7574;DHT22;3828;48.922;9.116;2023-03-26T00:42:32;6.00;99.90
7574;DHT22;3828;48.922;9.116;2023-03-26T00:45:01;6.80;99.90
7574;DHT22;3828;48.922;9.116;2023-03-26T00:54:53;6.80;99.90
7574;DHT22;3828;48.922;9.116;2023-03-26T00:57:21;6.70;99.90
7574;DHT22;3828;48.922;9.116;2023-03-26T01:02:19;6.80;99.90
7574;DHT22;3828;48.922;9.116;2023-03-26T01:04:50;6.70;99.90
7574;DHT22;3828;48.922;9.116;2023-03-26T01:07:20;6.70;99.90
7574;DHT22;3828;48.922;9.116;2023-03-26T01:09:56;6.70;99.90
7574;DHT22;3828;48.922;9.116;2023-03-26T01:12:25;6.70;99.90
7574;DHT22;3828;48.922;9.116;2023-03-26T01:14:55;6.60;99.90
7574;DHT22;3828;48.922;9.116;2023-03-26T01:17:27;6.70;99.90
7574;DHT22;3828;48.922;9.116;2023-03-26T01:20:07;6.60;99.90
7574;DHT22;3828;48.922;9.116;2023-03-26T01:22:39;6.60;99.90
7574;DHT22;3828;48.922;9.116;2023-03-26T01:25:08;6.60;99.90
7574;DHT22;3828;48.922;9.116;2023-03-26T01:27:37;6.60;99.90
7574;DHT22;3828;48.922;9.116;2023-03-26T01:30:10;8.80;99.90
7574;DHT22;3828;48.922;9.116;2023-03-26T01:32:48;6.70;99.90
7574;DHT22;3828;48.922;9.116;2023-03-26T01:35:28;6.70;99.90
7574;DHT22;3828;48.922;9.116;2023-03-26T01:38:02;6.80;99.90
7574;DHT22;3828;48.922;9.116;2023-03-26T01:40:47;6.80;99.90
7574;DHT22;3828;48.922;9.116;2023-03-26T01:43:22;6.80;99.90
7574;DHT22;3828;48.922;9.116;2023-03-26T01:50:45;7.00;99.90
7574;DHT22;3828;48.922;9.116;2023-03-26T01:53:13;7.00;99.90
7574;DHT22;3828;48.922;9.116;2023-03-26T01:55:52;7.10;99.90
7574;DHT22;3828;48.922;9.116;2023-03-26T01:58:26;7.10;99.90
7574;DHT22;3828;48.922;9.116;2023-03-26T02:01:00;7.10;99.90
7574;DHT22;3828;48.922;9.116;2023-03-26T02:03:30;7.20;99.90
7574;DHT22;3828;48.922;9.116;2023-03-26T02:06:04;7.20;99.90
7574;DHT22;3828;48.922;9.116;2023-03-26T02:08:36;7.20;99.90
7574;DHT22;3828;48.922;9.116;2023-03-26T02:11:08;7.20;99.90
7574;DHT22;3828;48.922;9.116;2023-03-26T02:16:06;7.20;99.90
7574;DHT22;3828;48.922;9.116;2023-03-26T02:21:06;7.30;99.90
7574;DHT22;3828;48.922;9.116;2023-03-26T02:26:07;10.30;99.90
7574;DHT22;3828;48.922;9.116;2023-03-26T02:35:56;7.30;99.90
7574;DHT22;3828;48.922;9.116;2023-03-26T02:43:22;7.20;99.90
7574;DHT22;3828;48.922;9.116;2023-03-26T02:45:48;7.10;99.90
7574;DHT22;3828;48.922;9.116;2023-03-26T02:48:15;7.10;99.90
7574;DHT22;3828;48.922;9.116;2023-03-26T02:50:43;7.10;99.90
7574;DHT22;3828;48.922;9.116;2023-03-26T03:00:34;7.10;99.90
7574;DHT22;3828;48.922;9.116;2023-03-26T03:07:56;7.30;99.90
7574;DHT22;3828;48.922;9.116;2023-03-26T03:12:52;7.30;99.90
7574;DHT22;3828;48.922;9.116;2023-03-26T03:15:20;7.30;99.90
7574;DHT22;3828;48.922;9.116;2023-03-26T03:17:48;7.30;99.90
7574;DHT22;3828;48.922;9.116;2023-03-26T03:20:16;7.30;99.90
7574;DHT22;3828;48.922;9.116;2023-03-26T03:27:42;7.30;99.90
7574;DHT22;3828;48.922;9.116;2023-03-26T03:30:13;7.40;99.90
7574;DHT22;3828;48.922;9.116;2023-03-26T03:32:40;7.40;99.90
7574;DHT22;3828;48.922;9.116;2023-03-26T03:35:08;7.40;99.90
7574;DHT22;3828;48.922;9.116;2023-03-26T03:40:06;7.40;99.90
7574;DHT22;3828;48.922;9.116;2023-03-26T03:52:27;7.50;99.90
7574;DHT22;3828;48.922;9.116;2023-03-26T03:59:49;7.50;99.90
7574;DHT22;3828;48.922;9.116;2023-03-26T04:09:46;7.50;99.90
7574;DHT22;3828;48.922;9.116;2023-03-26T04:14:40;7.50;99.90
7574;DHT22;3828;48.922;9.116;2023-03-26T04:24:30;7.60;99.90
7574;DHT22;3828;48.922;9.116;2023-03-26T04:27:10;7.60;99.90
7574;DHT22;3828;48.922;9.116;2023-03-26T04:29:39;7.60;99.90
7574;DHT22;3828;48.922;9.116;2023-03-26T04:32:11;7.60;99.90
7574;DHT22;3828;48.922;9.116;2023-03-26T04:37:16;7.60;99.90
7574;DHT22;3828;48.922;9.116;2023-03-26T04:42:14;7.50;99.90
7574;DHT22;3828;48.922;9.116;2023-03-26T04:47:15;7.60;99.90
7574;DHT22;3828;48.922;9.116;2023-03-26T04:52:10;7.50;99.90
7574;DHT22;3828;48.922;9.116;2023-03-26T04:57:06;7.50;99.90
7574;DHT22;3828;48.922;9.116;2023-03-26T04:59:36;7.50;99.90
7574;DHT22;3828;48.922;9.116;2023-03-26T05:02:06;7.50;99.90
7574;DHT22;3828;48.922;9.116;2023-03-26T05:16:53;7.90;99.90
7574;DHT22;3828;48.922;9.116;2023-03-26T05:29:11;8.00;99.90
7574;DHT22;3828;48.922;9.116;2023-03-26T05:34:07;8.10;99.90
7574;DHT22;3828;48.922;9.116;2023-03-26T05:36:34;8.10;99.90
7574;DHT22;3828;48.922;9.116;2023-03-26T05:39:01;8.10;99.90
7574;DHT22;3828;48.922;9.116;2023-03-26T05:46:23;8.10;99.90
7574;DHT22;3828;48.922;9.116;2023-03-26T05:51:19;8.10;99.90
7574;DHT22;3828;48.922;9.116;2023-03-26T06:01:11;8.10;99.90
7574;DHT22;3828;48.922;9.116;2023-03-26T06:03:42;8.10;99.90
7574;DHT22;3828;48.922;9.116;2023-03-26T06:06:11;8.10;99.90
7574;DHT22;3828;48.922;9.116;2023-03-26T06:08:41;8.20;99.90
7574;DHT22;3828;48.922;9.116;2023-03-26T06:16:06;8.30;99.90
7574;DHT22;3828;48.922;9.116;2023-03-26T06:25:56;8.30;99.90
7574;DHT22;3828;48.922;9.116;2023-03-26T06:43:09;8.60;99.90
7574;DHT22;3828;48.922;9.116;2023-03-26T06:48:04;8.60;99.90
7574;DHT22;3828;48.922;9.116;2023-03-26T06:50:32;8.70;99.90
7574;DHT22;3828;48.922;9.116;2023-03-26T06:55:27;8.70;99.90
7574;DHT22;3828;48.922;9.116;2023-03-26T07:00:53;8.70;99.90
7574;DHT22;3828;48.922;9.116;2023-03-26T07:03:21;8.70;99.90
7574;DHT22;3828;48.922;9.116;2023-03-26T07:18:05;11.60;99.90
7574;DHT22;3828;48.922;9.116;2023-03-26T07:20:32;8.60;99.90
7574;DHT22;3828;48.922;9.116;2023-03-26T07:22:59;8.70;99.90
7574;DHT22;3828;48.922;9.116;2023-03-26T07:25:27;8.70;99.90
7574;DHT22;3828;48.922;9.116;2023-03-26T07:28:00;8.70;99.90
7574;DHT22;3828;48.922;9.116;2023-03-26T07:30:49;8.70;99.90
7574;DHT22;3828;48.922;9.116;2023-03-26T07:33:23;8.70;99.90
7574;DHT22;3828;48.922;9.116;2023-03-26T07:35:55;8.60;99.90
7574;DHT22;3828;48.922;9.116;2023-03-26T07:38:32;8.60;99.90
7574;DHT22;3828;48.922;9.116;2023-03-26T07:41:05;8.70;99.90
7574;DHT22;3828;48.922;9.116;2023-03-26T07:44:01;8.60;99.90
7574;DHT22;3828;48.922;9.116;2023-03-26T07:46:32;8.50;99.90
7574;DHT22;3828;48.922;9.116;2023-03-26T07:49:03;8.50;99.90
7574;DHT22;3828;48.922;9.116;2023-03-26T07:51:31;8.40;99.90
7574;DHT22;3828;48.922;9.116;2023-03-26T07:53:58;8.30;99.90
7574;DHT22;3828;48.922;9.116;2023-03-26T07:56:31;8.30;99.90
7574;DHT22;3828;48.922;9.116;2023-03-26T07:59:09;8.30;99.90
7574;DHT22;3828;48.922;9.116;2023-03-26T08:01:45;8.30;99.90
7574;DHT22;3828;48.922;9.116;2023-03-26T08:07:29;8.30;99.90
7574;DHT22;3828;48.922;9.116;2023-03-26T08:10:02;8.30;99.90
7574;DHT22;3828;48.922;9.116;2023-03-26T08:12:38;8.30;99.90
7574;DHT22;3828;48.922;9.116;2023-03-26T08:15:14;8.30;99.90
7574;DHT22;3828;48.922;9.116;2023-03-26T08:17:49;8.30;99.90
7574;DHT22;3828;48.922;9.116;2023-03-26T08:20:25;8.30;99.90
7574;DHT22;3828;48.922;9.116;2023-03-26T08:23:03;8.20;99.90
7574;DHT22;3828;48.922;9.116;2023-03-26T08:25:33;8.20;99.90
7574;DHT22;3828;48.922;9.116;2023-03-26T08:28:16;8.10;99.90
7574;DHT22;3828;48.922;9.116;2023-03-26T08:30:45;8.10;99.90
7574;DHT22;3828;48.922;9.116;2023-03-26T08:33:14;8.10;99.90
7574;DHT22;3828;48.922;9.116;2023-03-26T08:35:43;8.00;99.90
7574;DHT22;3828;48.922;9.116;2023-03-26T08:38:13;8.00;99.90
7574;DHT22;3828;48.922;9.116;2023-03-26T08:50:40;7.90;99.90
7574;DHT22;3828;48.922;9.116;2023-03-26T08:53:30;7.90;99.90
7574;DHT22;3828;48.922;9.116;2023-03-26T08:56:07;8.00;99.90
7574;DHT22;3828;48.922;9.116;2023-03-26T08:59:07;8.10;99.90
7574;DHT22;3828;48.922;9.116;2023-03-26T09:10:51;8.60;99.90
7574;DHT22;3828;48.922;9.116;2023-03-26T09:13:52;8.60;99.90
7574;DHT22;3828;48.922;9.116;2023-03-26T09:16:58;8.70;99.90
7574;DHT22;3828;48.922;9.116;2023-03-26T09:23:02;8.80;99.90
7574;DHT22;3828;48.922;9.116;2023-03-26T09:25:56;9.20;99.90
7574;DHT22;3828;48.922;9.116;2023-03-26T09:28:53;9.80;99.90
7574;DHT22;3828;48.922;9.116;2023-03-26T09:34:28;11.60;99.90
7574;DHT22;3828;48.922;9.116;2023-03-26T09:37:09;11.90;99.90
7574;DHT22;3828;48.922;9.116;2023-03-26T09:39:49;12.00;99.90
7574;DHT22;3828;48.922;9.116;2023-03-26T09:42:32;12.30;99.90
7574;DHT22;3828;48.922;9.116;2023-03-26T09:45:38;12.10;99.90
7574;DHT22;3828;48.922;9.116;2023-03-26T09:48:34;12.20;99.90
7574;DHT22;3828;48.922;9.116;2023-03-26T09:51:16;12.00;99.90
7574;DHT22;3828;48.922;9.116;2023-03-26T09:54:11;11.60;99.90
7574;DHT22;3828;48.922;9.116;2023-03-26T09:56:50;11.40;99.90
7574;DHT22;3828;48.922;9.116;2023-03-26T09:59:35;11.20;99.90
7574;DHT22;3828;48.922;9.116;2023-03-26T10:02:19;11.20;99.90
7574;DHT22;3828;48.922;9.116;2023-03-26T10:05:03;10.90;99.90
7574;DHT22;3828;48.922;9.116;2023-03-26T10:07:46;11.00;99.90
7574;DHT22;3828;48.922;9.116;2023-03-26T10:10:25;10.90;99.90
7574;DHT22;3828;48.922;9.116;2023-03-26T10:13:02;11.00;99.90
7574;DHT22;3828;48.922;9.116;2023-03-26T10:15:39;12.70;99.90
7574;DHT22;3828;48.922;9.116;2023-03-26T10:18:20;11.90;99.90
7574;DHT22;3828;48.922;9.116;2023-03-26T10:20:55;13.10;99.90
7574;DHT22;3828;48.922;9.116;2023-03-26T10:23:38;14.10;99.90
7574;DHT22;3828;48.922;9.116;2023-03-26T10:29:22;14.90;99.90
7574;DHT22;3828;48.922;9.116;2023-03-26T10:31:57;15.20;99.90
7574;DHT22;3828;48.922;9.116;2023-03-26T10:34:45;15.50;99.90
7574;DHT22;3828;48.922;9.116;2023-03-26T10:37:18;14.90;99.90
7574;DHT22;3828;48.922;9.116;2023-03-26T10:39:58;15.00;99.90
7574;DHT22;3828;48.922;9.116;2023-03-26T10:42:42;15.00;99.90
7574;DHT22;3828;48.922;9.116;2023-03-26T10:45:23;14.70;99.90
7574;DHT22;3828;48.922;9.116;2023-03-26T10:48:14;15.00;99.90
7574;DHT22;3828;48.922;9.116;2023-03-26T10:50:51;14.70;99.90
7574;DHT22;3828;48.922;9.116;2023-03-26T10:53:28;11.80;99.90
7574;DHT22;3828;48.922;9.116;2023-03-26T10:56:00;15.30;99.90
7574;DHT22;3828;48.922;9.116;2023-03-26T10:58:33;15.60;99.90
7574;DHT22;3828;48.922;9.116;2023-03-26T11:01:02;16.10;99.90
7574;DHT22;3828;48.922;9.116;2023-03-26T11:03:45;16.70;99.90
7574;DHT22;3828;48.922;9.116;2023-03-26T11:06:24;16.10;99.90
7574;DHT22;3828;48.922;9.116;2023-03-26T11:09:00;15.00;99.90
7574;DHT22;3828;48.922;9.116;2023-03-26T11:11:31;14.60;99.90
7574;DHT22;3828;48.922;9.116;2023-03-26T11:14:06;15.20;99.90
7574;DHT22;3828;48.922;9.116;2023-03-26T11:16:46;14.70;99.90
7574;DHT22;3828;48.922;9.116;2023-03-26T11:19:22;14.60;99.90
7574;DHT22;3828;48.922;9.116;2023-03-26T11:21:54;14.50;99.90
7574;DHT22;3828;48.922;9.116;2023-03-26T11:24:54;13.90;99.90
7574;DHT22;3828;48.922;9.116;2023-03-26T11:27:29;13.70;99.90
7574;DHT22;3828;48.922;9.116;2023-03-26T11:30:10;13.60;99.90
7574;DHT22;3828;48.922;9.116;2023-03-26T11:32:43;13.60;99.90
7574;DHT22;3828;48.922;9.116;2023-03-26T11:35:18;13.50;99.90
7574;DHT22;3828;48.922;9.116;2023-03-26T11:37:51;13.30;99.90
7574;DHT22;3828;48.922;9.116;2023-03-26T11:40:24;13.10;99.90
7574;DHT22;3828;48.922;9.116;2023-03-26T11:42:57;12.80;99.90
7574;DHT22;3828;48.922;9.116;2023-03-26T11:45:26;12.20;99.90
7574;DHT22;3828;48.922;9.116;2023-03-26T11:47:58;11.50;99.90
7574;DHT22;3828;48.922;9.116;2023-03-26T11:50:31;11.60;99.90
7574;DHT22;3828;48.922;9.116;2023-03-26T11:53:10;12.70;99.90
7574;DHT22;3828;48.922;9.116;2023-03-26T11:55:38;14.00;99.90
7574;DHT22;3828;48.922;9.116;2023-03-26T11:58:20;18.40;99.90
7574;DHT22;3828;48.922;9.116;2023-03-26T12:00:48;15.10;99.90
7574;DHT22;3828;48.922;9.116;2023-03-26T12:03:17;15.20;99.90
7574;DHT22;3828;48.922;9.116;2023-03-26T12:05:49;14.30;99.90
7574;DHT22;3828;48.922;9.116;2023-03-26T12:08:18;13.10;99.90
7574;DHT22;3828;48.922;9.116;2023-03-26T12:10:50;12.10;99.90
7574;DHT22;3828;48.922;9.116;2023-03-26T12:13:34;12.50;99.90
7574;DHT22;3828;48.922;9.116;2023-03-26T12:16:11;13.60;99.90
7574;DHT22;3828;48.922;9.116;2023-03-26T12:18:39;14.70;99.90
7574;DHT22;3828;48.922;9.116;2023-03-26T12:21:11;15.70;99.90
7574;DHT22;3828;48.922;9.116;2023-03-26T12:23:43;16.50;99.90
7574;DHT22;3828;48.922;9.116;2023-03-26T12:26:14;17.40;99.90
7574;DHT22;3828;48.922;9.116;2023-03-26T12:28:46;17.60;99.90
7574;DHT22;3828;48.922;9.116;2023-03-26T12:31:14;17.40;99.90
7574;DHT22;3828;48.922;9.116;2023-03-26T12:33:44;16.70;99.90
7574;DHT22;3828;48.922;9.116;2023-03-26T12:36:31;16.10;99.90
7574;DHT22;3828;48.922;9.116;2023-03-26T12:41:39;15.50;99.90
7574;DHT22;3828;48.922;9.116;2023-03-26T12:44:21;16.00;99.90
7574;DHT22;3828;48.922;9.116;2023-03-26T12:49:19;16.50;99.90
7574;DHT22;3828;48.922;9.116;2023-03-26T12:51:50;16.90;99.90
7574;DHT22;3828;48.922;9.116;2023-03-26T12:54:36;17.50;99.90
7574;DHT22;3828;48.922;9.116;2023-03-26T12:57:18;17.20;99.90
7574;DHT22;3828;48.922;9.116;2023-03-26T13:00:22;16.70;99.90
7574;DHT22;3828;48.922;9.116;2023-03-26T13:06:21;17.40;99.90
7574;DHT22;3828;48.922;9.116;2023-03-26T13:09:20;17.00;99.90
7574;DHT22;3828;48.922;9.116;2023-03-26T13:11:58;15.80;99.90
7574;DHT22;3828;48.922;9.116;2023-03-26T13:14:40;15.00;99.90
7574;DHT22;3828;48.922;9.116;2023-03-26T13:17:16;14.40;99.90
7574;DHT22;3828;48.922;9.116;2023-03-26T13:19:53;14.10;99.90
7574;DHT22;3828;48.922;9.116;2023-03-26T13:22:25;13.70;99.90
7574;DHT22;3828;48.922;9.116;2023-03-26T13:25:02;13.60;99.90
7574;DHT22;3828;48.922;9.116;2023-03-26T13:27:39;13.40;99.90
7574;DHT22;3828;48.922;9.116;2023-03-26T13:30:22;13.50;99.90
7574;DHT22;3828;48.922;9.116;2023-03-26T13:33:07;14.80;99.90
7574;DHT22;3828;48.922;9.116;2023-03-26T13:35:42;15.60;99.90
7574;DHT22;3828;48.922;9.116;2023-03-26T13:38:16;16.10;99.90
7574;DHT22;3828;48.922;9.116;2023-03-26T13:40:54;16.60;99.90
7574;DHT22;3828;48.922;9.116;2023-03-26T13:43:35;17.00;99.90
7574;DHT22;3828;48.922;9.116;2023-03-26T13:46:12;17.20;99.90
7574;DHT22;3828;48.922;9.116;2023-03-26T13:48:47;16.80;99.90
7574;DHT22;3828;48.922;9.116;2023-03-26T13:51:20;16.50;99.90
7574;DHT22;3828;48.922;9.116;2023-03-26T13:53:52;16.40;99.90
7574;DHT22;3828;48.922;9.116;2023-03-26T13:56:25;15.80;99.90
7574;DHT22;3828;48.922;9.116;2023-03-26T13:58:58;15.70;99.90
7574;DHT22;3828;48.922;9.116;2023-03-26T14:01:28;16.10;99.90
7574;DHT22;3828;48.922;9.116;2023-03-26T14:04:03;15.70;99.90
7574;DHT22;3828;48.922;9.116;2023-03-26T14:06:39;15.20;99.90
7574;DHT22;3828;48.922;9.116;2023-03-26T14:09:14;14.70;99.90
7574;DHT22;3828;48.922;9.116;2023-03-26T14:11:57;14.40;99.90
7574;DHT22;3828;48.922;9.116;2023-03-26T14:14:31;13.90;99.90
7574;DHT22;3828;48.922;9.116;2023-03-26T14:17:05;13.60;99.90
7574;DHT22;3828;48.922;9.116;2023-03-26T14:20:05;13.40;99.90
7574;DHT22;3828;48.922;9.116;2023-03-26T14:22:41;13.20;99.90
7574;DHT22;3828;48.922;9.116;2023-03-26T14:25:29;13.00;99.90
7574;DHT22;3828;48.922;9.116;2023-03-26T14:28:11;12.80;99.90
7574;DHT22;3828;48.922;9.116;2023-03-26T14:31:01;12.70;99.90
7574;DHT22;3828;48.922;9.116;2023-03-26T14:33:59;12.80;99.90
7574;DHT22;3828;48.922;9.116;2023-03-26T14:37:00;12.70;99.90
7574;DHT22;3828;48.922;9.116;2023-03-26T14:40:06;12.70;99.90
7574;DHT22;3828;48.922;9.116;2023-03-26T14:42:50;12.70;99.90
7574;DHT22;3828;48.922;9.116;2023-03-26T14:45:34;12.60;99.90
7574;DHT22;3828;48.922;9.116;2023-03-26T14:48:35;12.50;99.90
7574;DHT22;3828;48.922;9.116;2023-03-26T14:51:14;12.40;99.90
7574;DHT22;3828;48.922;9.116;2023-03-26T14:53:45;12.20;99.90
7574;DHT22;3828;48.922;9.116;2023-03-26T14:56:40;11.80;99.90
7574;DHT22;3828;48.922;9.116;2023-03-26T15:05:46;9.20;99.90
7574;DHT22;3828;48.922;9.116;2023-03-26T15:11:33;8.40;99.90
7574;DHT22;3828;48.922;9.116;2023-03-26T15:14:37;8.30;99.90
7574;DHT22;3828;48.922;9.116;2023-03-26T15:20:39;8.20;99.90
7574;DHT22;3828;48.922;9.116;2023-03-26T15:23:33;8.10;99.90
7574;DHT22;3828;48.922;9.116;2023-03-26T15:26:50;8.00;99.90
7574;DHT22;3828;48.922;9.116;2023-03-26T15:33:12;7.80;99.90
7574;DHT22;3828;48.922;9.116;2023-03-26T15:35:59;7.70;99.90
7574;DHT22;3828;48.922;9.116;2023-03-26T15:41:39;7.70;99.90
7574;DHT22;3828;48.922;9.116;2023-03-26T15:44:42;7.70;99.90
7574;DHT22;3828;48.922;9.116;2023-03-26T15:47:25;7.70;99.90
7574;DHT22;3828;48.922;9.116;2023-03-26T15:50:07;7.80;99.90
7574;DHT22;3828;48.922;9.116;2023-03-26T15:52:38;7.80;99.90
7574;DHT22;3828;48.922;9.116;2023-03-26T15:55:21;7.80;99.90
7574;DHT22;3828;48.922;9.116;2023-03-26T15:57:57;7.80;99.90
7574;DHT22;3828;48.922;9.116;2023-03-26T16:00:27;7.90;99.90
7574;DHT22;3828;48.922;9.116;2023-03-26T16:03:10;7.90;99.90
7574;DHT22;3828;48.922;9.116;2023-03-26T16:05:55;7.90;99.90
7574;DHT22;3828;48.922;9.116;2023-03-26T16:08:28;8.00;99.90
7574;DHT22;3828;48.922;9.116;2023-03-26T16:11:02;8.00;99.90
7574;DHT22;3828;48.922;9.116;2023-03-26T16:13:35;8.10;99.90
7574;DHT22;3828;48.922;9.116;2023-03-26T16:16:23;8.20;99.90
7574;DHT22;3828;48.922;9.116;2023-03-26T16:18:55;8.10;99.90
7574;DHT22;3828;48.922;9.116;2023-03-26T16:21:54;8.20;99.90
7574;DHT22;3828;48.922;9.116;2023-03-26T16:24:28;8.20;99.90
7574;DHT22;3828;48.922;9.116;2023-03-26T16:30:13;8.20;99.90
7574;DHT22;3828;48.922;9.116;2023-03-26T16:32:43;8.30;99.90
7574;DHT22;3828;48.922;9.116;2023-03-26T16:38:24;8.30;99.90
7574;DHT22;3828;48.922;9.116;2023-03-26T16:41:01;8.30;99.90
7574;DHT22;3828;48.922;9.116;2023-03-26T16:43:45;8.30;99.90
7574;DHT22;3828;48.922;9.116;2023-03-26T16:46:33;8.20;99.90
7574;DHT22;3828;48.922;9.116;2023-03-26T16:49:07;8.20;99.90
7574;DHT22;3828;48.922;9.116;2023-03-26T16:52:01;8.20;99.90
7574;DHT22;3828;48.922;9.116;2023-03-26T16:54:40;8.20;99.90
7574;DHT22;3828;48.922;9.116;2023-03-26T16:57:18;8.20;99.90
7574;DHT22;3828;48.922;9.116;2023-03-26T17:00:03;8.20;99.90
7574;DHT22;3828;48.922;9.116;2023-03-26T17:02:47;8.20;99.90
7574;DHT22;3828;48.922;9.116;2023-03-26T17:05:19;8.20;99.90
7574;DHT22;3828;48.922;9.116;2023-03-26T17:07:53;8.20;99.90
7574;DHT22;3828;48.922;9.116;2023-03-26T17:10:28;8.20;99.90
7574;DHT22;3828;48.922;9.116;2023-03-26T17:13:02;8.20;99.90
7574;DHT22;3828;48.922;9.116;2023-03-26T17:15:37;8.20;99.90
7574;DHT22;3828;48.922;9.116;2023-03-26T17:18:24;8.20;99.90
7574;DHT22;3828;48.922;9.116;2023-03-26T17:20:59;8.20;99.90
7574;DHT22;3828;48.922;9.116;2023-03-26T17:23:35;8.20;99.90
7574;DHT22;3828;48.922;9.116;2023-03-26T17:26:10;8.30;99.90
7574;DHT22;3828;48.922;9.116;2023-03-26T17:28:49;8.20;99.90
7574;DHT22;3828;48.922;9.116;2023-03-26T17:31:26;8.30;99.90
7574;DHT22;3828;48.922;9.116;2023-03-26T17:36:59;8.30;99.90
7574;DHT22;3828;48.922;9.116;2023-03-26T17:42:38;8.30;99.90
7574;DHT22;3828;48.922;9.116;2023-03-26T17:45:25;8.30;99.90
7574;DHT22;3828;48.922;9.116;2023-03-26T17:47:56;8.30;99.90
7574;DHT22;3828;48.922;9.116;2023-03-26T17:50:26;8.30;99.90
7574;DHT22;3828;48.922;9.116;2023-03-26T17:52:57;8.30;99.90
7574;DHT22;3828;48.922;9.116;2023-03-26T17:55:27;8.30;99.90
7574;DHT22;3828;48.922;9.116;2023-03-26T17:57:58;7.30;99.90
7574;DHT22;3828;48.922;9.116;2023-03-26T18:00:28;8.30;99.90
7574;DHT22;3828;48.922;9.116;2023-03-26T18:02:59;8.30;99.90
7574;DHT22;3828;48.922;9.116;2023-03-26T18:05:28;8.30;99.90
7574;DHT22;3828;48.922;9.116;2023-03-26T18:08:30;8.20;99.90
7574;DHT22;3828;48.922;9.116;2023-03-26T18:11:16;8.20;99.90
7574;DHT22;3828;48.922;9.116;2023-03-26T18:14:03;8.30;99.90
7574;DHT22;3828;48.922;9.116;2023-03-26T18:16:37;9.10;99.90
7574;DHT22;3828;48.922;9.116;2023-03-26T18:19:09;8.30;99.90
7574;DHT22;3828;48.922;9.116;2023-03-26T18:21:43;8.20;99.90
7574;DHT22;3828;48.922;9.116;2023-03-26T18:24:13;8.20;99.90
7574;DHT22;3828;48.922;9.116;2023-03-26T18:26:42;8.20;99.90
7574;DHT22;3828;48.922;9.116;2023-03-26T18:29:15;8.20;99.90
7574;DHT22;3828;48.922;9.116;2023-03-26T18:34:13;8.20;99.90
7574;DHT22;3828;48.922;9.116;2023-03-26T18:36:44;8.20;99.90
7574;DHT22;3828;48.922;9.116;2023-03-26T18:44:13;8.10;99.90
7574;DHT22;3828;48.922;9.116;2023-03-26T18:46:41;8.10;99.90
7574;DHT22;3828;48.922;9.116;2023-03-26T18:49:10;8.10;99.90
7574;DHT22;3828;48.922;9.116;2023-03-26T18:54:07;8.10;99.90
7574;DHT22;3828;48.922;9.116;2023-03-26T18:56:36;8.10;99.90
7574;DHT22;3828;48.922;9.116;2023-03-26T18:59:05;8.10;99.90
7574;DHT22;3828;48.922;9.116;2023-03-26T19:01:34;8.10;99.90
7574;DHT22;3828;48.922;9.116;2023-03-26T19:04:04;8.10;99.90
7574;DHT22;3828;48.922;9.116;2023-03-26T19:06:33;8.10;99.90
7574;DHT22;3828;48.922;9.116;2023-03-26T19:09:03;8.10;99.90
7574;DHT22;3828;48.922;9.116;2023-03-26T19:11:36;8.00;99.90
7574;DHT22;3828;48.922;9.116;2023-03-26T19:14:06;8.00;99.90
7574;DHT22;3828;48.922;9.116;2023-03-26T19:16:35;8.00;99.90
7574;DHT22;3828;48.922;9.116;2023-03-26T19:21:35;7.90;99.90
7574;DHT22;3828;48.922;9.116;2023-03-26T19:24:03;7.80;99.90
7574;DHT22;3828;48.922;9.116;2023-03-26T19:31:27;7.70;99.90
7574;DHT22;3828;48.922;9.116;2023-03-26T19:33:59;7.70;99.90
7574;DHT22;3828;48.922;9.116;2023-03-26T19:36:28;7.70;99.90
7574;DHT22;3828;48.922;9.116;2023-03-26T19:39:07;7.60;99.90
7574;DHT22;3828;48.922;9.116;2023-03-26T19:41:38;7.60;99.90
7574;DHT22;3828;48.922;9.116;2023-03-26T19:44:16;7.50;99.90
7574;DHT22;3828;48.922;9.116;2023-03-26T19:46:46;7.40;99.90
7574;DHT22;3828;48.922;9.116;2023-03-26T19:49:29;7.40;99.90
7574;DHT22;3828;48.922;9.116;2023-03-26T19:52:08;7.30;99.90
7574;DHT22;3828;48.922;9.116;2023-03-26T19:54:47;7.30;99.90
7574;DHT22;3828;48.922;9.116;2023-03-26T20:02:10;7.10;99.90
7574;DHT22;3828;48.922;9.116;2023-03-26T20:04:41;7.10;99.90
7574;DHT22;3828;48.922;9.116;2023-03-26T20:07:10;7.10;99.90
7574;DHT22;3828;48.922;9.116;2023-03-26T20:12:06;6.90;99.90
7574;DHT22;3828;48.922;9.116;2023-03-26T20:21:56;6.90;99.90
7574;DHT22;3828;48.922;9.116;2023-03-26T20:24:23;6.90;99.90
7574;DHT22;3828;48.922;9.116;2023-03-26T20:29:17;6.80;99.90
7574;DHT22;3828;48.922;9.116;2023-03-26T20:34:16;6.80;99.90
7574;DHT22;3828;48.922;9.116;2023-03-26T20:39:12;6.80;99.90
7574;DHT22;3828;48.922;9.116;2023-03-26T20:41:43;6.80;99.90
7574;DHT22;3828;48.922;9.116;2023-03-26T20:44:11;6.80;99.90
7574;DHT22;3828;48.922;9.116;2023-03-26T20:46:39;6.80;99.90
7574;DHT22;3828;48.922;9.116;2023-03-26T20:49:07;6.90;99.90
7574;DHT22;3828;48.922;9.116;2023-03-26T20:54:04;7.00;99.90
7574;DHT22;3828;48.922;9.116;2023-03-26T20:56:34;7.00;99.90
7574;DHT22;3828;48.922;9.116;2023-03-26T21:08:57;7.10;99.90
7574;DHT22;3828;48.922;9.116;2023-03-26T21:11:31;7.20;99.90
7574;DHT22;3828;48.922;9.116;2023-03-26T21:14:06;10.70;99.90
7574;DHT22;3828;48.922;9.116;2023-03-26T21:16:35;7.20;99.90
7574;DHT22;3828;48.922;9.116;2023-03-26T21:19:04;7.20;99.90
7574;DHT22;3828;48.922;9.116;2023-03-26T21:21:45;7.20;99.90
7574;DHT22;3828;48.922;9.116;2023-03-26T21:24:19;7.20;99.90
7574;DHT22;3828;48.922;9.116;2023-03-26T21:26:53;7.20;99.90
7574;DHT22;3828;48.922;9.116;2023-03-26T21:29:24;7.10;99.90
7574;DHT22;3828;48.922;9.116;2023-03-26T21:31:52;7.10;99.90
7574;DHT22;3828;48.922;9.116;2023-03-26T21:34:20;7.10;99.90
7574;DHT22;3828;48.922;9.116;2023-03-26T21:39:15;7.00;99.90
7574;DHT22;3828;48.922;9.116;2023-03-26T21:41:46;7.00;99.90
7574;DHT22;3828;48.922;9.116;2023-03-26T21:44:15;7.00;99.90
7574;DHT22;3828;48.922;9.116;2023-03-26T21:46:46;6.90;99.90
7574;DHT22;3828;48.922;9.116;2023-03-26T21:49:15;6.90;99.90
7574;DHT22;3828;48.922;9.116;2023-03-26T21:51:44;6.90;99.90
7574;DHT22;3828;48.922;9.116;2023-03-26T21:54:21;6.80;99.90
7574;DHT22;3828;48.922;9.116;2023-03-26T21:56:56;6.70;99.90
7574;DHT22;3828;48.922;9.116;2023-03-26T21:59:33;6.70;99.90
7574;DHT22;3828;48.922;9.116;2023-03-26T22:02:06;6.80;99.90
7574;DHT22;3828;48.922;9.116;2023-03-26T22:04:42;6.80;99.90
7574;DHT22;3828;48.922;9.116;2023-03-26T22:07:11;6.80;99.90
7574;DHT22;3828;48.922;9.116;2023-03-26T22:09:40;6.80;99.90
7574;DHT22;3828;48.922;9.116;2023-03-26T22:17:04;6.90;99.90
7574;DHT22;3828;48.922;9.116;2023-03-26T22:21:58;7.00;99.90
7574;DHT22;3828;48.922;9.116;2023-03-26T22:34:16;7.00;99.90
7574;DHT22;3828;48.922;9.116;2023-03-26T22:41:38;7.00;99.90
7574;DHT22;3828;48.922;9.116;2023-03-26T22:51:28;7.10;99.90
7574;DHT22;3828;48.922;9.116;2023-03-26T23:01:19;7.10;99.90
7574;DHT22;3828;48.922;9.116;2023-03-26T23:08:43;7.10;99.90
7574;DHT22;3828;48.922;9.116;2023-03-26T23:11:11;7.00;99.90
7574;DHT22;3828;48.922;9.116;2023-03-26T23:16:06;7.10;99.90
7574;DHT22;3828;48.922;9.116;2023-03-26T23:21:03;7.10;99.90
7574;DHT22;3828;48.922;9.116;2023-03-26T23:23:33;7.00;99.90
7574;DHT22;3828;48.922;9.116;2023-03-26T23:26:03;7.00;99.90
7574;DHT22;3828;48.922;9.116;2023-03-26T23:28:33;7.00;99.90
7574;DHT22;3828;48.922;9.116;2023-03-26T23:31:01;7.00;99.90
7574;DHT22;3828;48.922;9.116;2023-03-26T23:33:32;6.90;99.90